createdAt,value
2019-04-20T00:01:26.221Z,17.21
2019-04-20T00:04:47.209Z,16.95
2019-04-20T00:08:19.210Z,16.90
2019-04-20T00:11:48.404Z,16.57
2019-04-20T00:15:02.989Z,16.59
2019-04-20T00:18:38.195Z,16.46
2019-04-20T00:22:03.025Z,16.37
2019-04-20T00:25:55.466Z,16.32
2019-04-20T00:29:32.212Z,16.21
2019-04-20T00:32:49.969Z,16.04
2019-04-20T00:36:01.151Z,16.06
2019-04-20T00:39:25.883Z,15.96
2019-04-20T00:42:55.168Z,15.95
2019-04-20T00:46:26.425Z,15.76
2019-04-20T00:49:55.107Z,15.67
2019-04-20T00:53:19.539Z,15.56
2019-04-20T00:56:33.006Z,15.49
2019-04-20T01:00:17.689Z,15.35
2019-04-20T01:03:33.819Z,15.26
2019-04-20T01:07:11.392Z,15.14
2019-04-20T01:10:23.654Z,15.10
2019-04-20T01:13:52.713Z,15.17
2019-04-20T01:17:13.428Z,15.24
2019-04-20T01:20:36.600Z,15.19
2019-04-20T01:24:03.554Z,15.35
2019-04-20T01:27:38.741Z,15.38
2019-04-20T01:31:06.193Z,15.54
2019-04-20T01:34:32.566Z,15.55
2019-04-20T01:38:01.373Z,15.51
2019-04-20T01:41:07.464Z,15.46
2019-04-20T01:44:36.787Z,15.25
2019-04-20T01:47:59.197Z,15.10
2019-04-20T01:51:29.733Z,14.96
2019-04-20T01:55:24.844Z,14.71
2019-04-20T01:59:10.617Z,14.53
2019-04-20T02:02:48.853Z,14.41
2019-04-20T02:06:13.043Z,14.58
2019-04-20T02:09:37.891Z,14.51
2019-04-20T02:13:01.702Z,14.55
2019-04-20T02:16:32.750Z,14.70
2019-04-20T02:20:23.343Z,14.70
2019-04-20T02:23:56.206Z,14.47
2019-04-20T02:27:15.014Z,14.44
2019-04-20T02:31:24.319Z,14.33
2019-04-20T02:35:27.321Z,14.36
2019-04-20T02:39:43.242Z,14.38
2019-04-20T02:43:05.505Z,14.41
2019-04-20T02:46:24.538Z,14.42
2019-04-20T02:50:05.179Z,14.37
2019-04-20T02:54:06.326Z,14.44
2019-04-20T02:58:10.811Z,14.27
2019-04-20T03:01:40.697Z,14.33
2019-04-20T03:05:20.685Z,14.06
2019-04-20T03:09:36.796Z,14.11
2019-04-20T03:13:18.546Z,13.81
2019-04-20T03:17:01.407Z,13.85
2019-04-20T03:21:07.998Z,13.85
2019-04-20T03:25:28.506Z,13.86
2019-04-20T03:29:03.936Z,13.71
2019-04-20T03:33:06.936Z,13.59
2019-04-20T03:36:27.839Z,13.68
2019-04-20T03:39:52.972Z,13.63
2019-04-20T03:43:05.636Z,13.68
2019-04-20T03:46:57.951Z,13.92
2019-04-20T03:50:43.570Z,13.81
2019-04-20T03:54:19.888Z,13.60
2019-04-20T03:58:08.812Z,13.53
2019-04-20T04:02:25.139Z,13.51
2019-04-20T04:05:32.448Z,13.38
2019-04-20T04:08:55.013Z,13.34
2019-04-20T04:12:59.122Z,13.37
2019-04-20T04:16:27.117Z,13.37
2019-04-20T04:20:12.874Z,13.26
2019-04-20T04:23:48.923Z,13.30
2019-04-20T04:27:38.701Z,13.21
2019-04-20T04:30:59.927Z,13.24
2019-04-20T04:34:46.883Z,13.28
2019-04-20T04:38:06.940Z,13.16
2019-04-20T04:41:39.901Z,13.25
2019-04-20T04:45:00.822Z,13.24
2019-04-20T04:48:22.391Z,13.20
2019-04-20T04:52:02.236Z,13.28
2019-04-20T04:55:31.159Z,13.35
2019-04-20T04:58:44.959Z,13.44
2019-04-20T05:02:07.990Z,13.23
2019-04-20T05:06:13.361Z,13.34
2019-04-20T05:09:23.832Z,13.37
2019-04-20T05:12:48.166Z,13.51
2019-04-20T05:16:54.614Z,13.48
2019-04-20T05:20:16.083Z,13.47
2019-04-20T05:23:43.695Z,13.63
2019-04-20T05:27:30.170Z,13.77
2019-04-20T05:30:45.185Z,13.82
2019-04-20T05:34:33.264Z,13.96
2019-04-20T05:38:02.820Z,14.16
2019-04-20T05:41:17.387Z,14.14
2019-04-20T05:44:46.123Z,14.15
2019-04-20T05:48:16.420Z,14.37
2019-04-20T05:51:44.624Z,14.45
2019-04-20T05:55:19.501Z,14.70
2019-04-20T05:58:32.948Z,14.70
2019-04-20T06:02:07.685Z,14.93
2019-04-20T06:05:45.937Z,14.94
2019-04-20T06:09:39.651Z,15.16
2019-04-20T06:13:29.995Z,15.40
2019-04-20T06:17:11.395Z,15.64
2019-04-20T06:21:00.817Z,15.81
2019-04-20T06:24:35.893Z,15.96
2019-04-20T06:27:54.825Z,16.09
2019-04-20T06:31:35.586Z,16.12
2019-04-20T06:35:53.628Z,16.47
2019-04-20T06:39:37.025Z,16.65
2019-04-20T06:43:18.061Z,16.77
2019-04-20T06:47:02.849Z,17.03
2019-04-20T06:50:39.061Z,17.30
2019-04-20T06:54:57.779Z,17.37
2019-04-20T06:58:40.624Z,17.69
2019-04-20T07:02:18.690Z,17.84
2019-04-20T07:06:20.953Z,18.03
2019-04-20T07:09:47.374Z,18.12
2019-04-20T07:12:55.617Z,18.20
2019-04-20T07:16:53.345Z,18.27
2019-04-20T07:21:05.355Z,18.47
2019-04-20T07:24:47.878Z,18.67
2019-04-20T07:28:12.956Z,18.73
2019-04-20T07:32:10.768Z,18.92
2019-04-20T07:35:56.016Z,19.12
2019-04-20T07:39:48.659Z,19.23
2019-04-20T07:43:16.466Z,19.21
2019-04-20T07:47:13.810Z,19.41
2019-04-20T07:50:33.399Z,19.50
2019-04-20T07:54:56.953Z,19.62
2019-04-20T07:58:21.791Z,19.75
2019-04-20T08:02:17.239Z,19.77
2019-04-20T08:05:45.869Z,19.98
2019-04-20T08:09:28.820Z,20.20
2019-04-20T08:20:57.656Z,20.57
2019-04-20T08:24:21.491Z,20.63
2019-04-20T08:28:25.243Z,20.64
2019-04-20T08:32:23.112Z,20.87
2019-04-20T08:36:19.981Z,20.83
2019-04-20T08:43:45.132Z,21.07
2019-04-20T08:47:13.208Z,21.11
2019-04-20T08:50:22.307Z,21.39
2019-04-20T08:53:51.790Z,21.73
2019-04-20T08:57:15.776Z,21.97
2019-04-20T09:00:48.558Z,21.80
2019-04-20T09:04:52.887Z,21.91
2019-04-20T09:08:37.957Z,22.40
2019-04-20T09:12:11.544Z,22.61
2019-04-20T09:16:13.031Z,22.67
2019-04-20T09:20:27.051Z,22.92
2019-04-20T09:24:38.204Z,23.33
2019-04-20T09:28:14.604Z,23.66
2019-04-20T09:31:47.225Z,23.92
2019-04-20T09:35:48.649Z,23.65
2019-04-20T09:39:30.653Z,24.22
2019-04-20T09:43:25.861Z,24.58
2019-04-20T09:47:10.528Z,25.06
2019-04-20T09:50:56.456Z,25.55
2019-04-20T09:54:40.370Z,25.78
2019-04-20T09:58:01.514Z,25.88
2019-04-20T10:01:41.989Z,26.39
2019-04-20T10:05:43.533Z,26.39
2019-04-20T10:09:07.514Z,27.02
2019-04-20T10:12:52.213Z,27.97
2019-04-20T10:16:55.791Z,28.44
2019-04-20T10:20:34.743Z,28.80
2019-04-20T10:23:56.610Z,29.57
2019-04-20T10:27:32.757Z,30.29
2019-04-20T10:31:30.758Z,31.17
2019-04-20T10:34:59.888Z,32.56
2019-04-20T10:38:35.920Z,33.73
2019-04-20T10:42:20.437Z,33.08
2019-04-20T10:46:02.724Z,34.66
2019-04-20T10:49:49.359Z,34.86
2019-04-20T10:53:22.112Z,32.68
2019-04-20T10:57:01.817Z,35.10
2019-04-20T11:01:25.167Z,34.91
2019-04-20T11:04:56.974Z,34.38
2019-04-20T11:08:30.604Z,34.67
2019-04-20T11:11:54.457Z,35.51
2019-04-20T11:15:42.134Z,34.46
2019-04-20T11:19:25.704Z,33.58
2019-04-20T11:23:08.545Z,34.51
2019-04-20T11:26:38.057Z,34.60
2019-04-20T11:30:02.576Z,35.79
2019-04-20T11:33:52.254Z,36.07
2019-04-20T11:37:17.455Z,35.04
2019-04-20T11:40:42.286Z,34.43
2019-04-20T11:44:27.864Z,34.30
2019-04-20T11:47:55.649Z,34.47
2019-04-20T11:51:21.515Z,36.41
2019-04-20T11:55:04.455Z,34.64
2019-04-20T11:58:44.883Z,37.10
2019-04-20T12:02:54.552Z,37.64
2019-04-20T12:06:39.115Z,37.15
2019-04-20T12:10:15.809Z,37.46
2019-04-20T12:14:00.566Z,38.53
2019-04-20T12:17:31.988Z,36.76
2019-04-20T12:21:18.941Z,37.74
2019-04-20T12:24:42.352Z,37.02
2019-04-20T12:28:27.428Z,38.92
2019-04-20T12:32:08.584Z,38.51
2019-04-20T12:35:40.351Z,39.52
2019-04-20T12:39:08.893Z,37.89
2019-04-20T12:42:32.953Z,36.23
2019-04-20T12:46:21.405Z,37.09
2019-04-20T12:49:43.609Z,38.34
2019-04-20T12:53:28.632Z,36.98
2019-04-20T12:57:10.875Z,38.72
2019-04-20T13:00:49.618Z,38.77
2019-04-20T13:05:11.826Z,39.77
2019-04-20T13:08:42.216Z,38.51
2019-04-20T13:12:24.153Z,41.46
2019-04-20T13:16:08.041Z,41.61
2019-04-20T13:19:51.240Z,40.68
2019-04-20T13:23:39.129Z,38.67
2019-04-20T13:27:04.625Z,38.34
2019-04-20T13:30:32.230Z,38.70
2019-04-20T13:34:03.834Z,37.56
2019-04-20T13:37:47.230Z,39.78
2019-04-20T13:41:11.586Z,39.47
2019-04-20T13:44:43.239Z,39.03
2019-04-20T13:48:26.742Z,40.65
2019-04-20T13:51:59.057Z,39.15
2019-04-20T13:55:50.206Z,39.50
2019-04-20T13:59:37.805Z,39.04
2019-04-20T14:03:04.916Z,39.03
2019-04-20T14:06:35.271Z,38.82
2019-04-20T14:10:19.549Z,38.47
2019-04-20T14:13:51.890Z,38.76
2019-04-20T14:17:16.993Z,38.74
2019-04-20T14:20:44.640Z,38.86
2019-04-20T14:24:24.803Z,38.71
2019-04-20T14:28:02.755Z,39.23
2019-04-20T14:31:28.255Z,39.11
2019-04-20T14:35:29.202Z,39.47
2019-04-20T14:38:54.075Z,37.98
2019-04-20T14:42:44.849Z,38.55
2019-04-20T14:46:03.049Z,38.37
2019-04-20T14:49:26.252Z,38.99
2019-04-20T14:52:49.784Z,39.24
2019-04-20T14:56:13.609Z,39.83
2019-04-20T14:59:47.802Z,38.43
2019-04-20T15:03:35.390Z,38.27
2019-04-20T15:07:00.165Z,39.22
2019-04-20T15:10:24.755Z,39.37
2019-04-20T15:13:48.929Z,39.56
2019-04-20T15:17:17.133Z,40.30
2019-04-20T15:20:43.725Z,40.73
2019-04-20T15:24:06.917Z,41.07
2019-04-20T15:27:30.365Z,39.35
2019-04-20T15:30:54.179Z,40.05
2019-04-20T15:34:17.491Z,41.33
2019-04-20T15:37:42.386Z,38.75
2019-04-20T15:41:08.594Z,40.11
2019-04-20T15:44:31.443Z,42.21
2019-04-20T15:47:56.322Z,40.90
2019-04-20T15:51:19.577Z,41.57
2019-04-20T15:54:43.419Z,39.93
2019-04-20T15:58:08.321Z,41.13
2019-04-20T16:01:36.589Z,39.59
2019-04-20T16:05:22.284Z,42.68
2019-04-20T16:08:48.350Z,40.36
2019-04-20T16:12:12.953Z,40.21
2019-04-20T16:15:36.203Z,40.15
2019-04-20T16:19:04.049Z,40.44
2019-04-20T16:22:26.255Z,38.08
2019-04-20T16:25:55.471Z,35.51
2019-04-20T16:29:19.836Z,34.51
2019-04-20T16:32:44.880Z,34.38
2019-04-20T16:36:08.362Z,33.58
2019-04-20T16:39:32.299Z,32.75
2019-04-20T16:42:56.350Z,32.16
2019-04-20T16:46:22.520Z,31.45
2019-04-20T16:49:44.722Z,32.21
2019-04-20T16:53:08.900Z,31.15
2019-04-20T16:56:32.954Z,31.61
2019-04-20T16:59:59.132Z,31.00
2019-04-20T17:03:27.888Z,30.80
2019-04-20T17:07:10.330Z,30.43
2019-04-20T17:10:34.834Z,30.00
2019-04-20T17:14:01.613Z,29.53
2019-04-20T17:17:23.750Z,29.39
2019-04-20T17:20:46.903Z,28.97
2019-04-20T17:24:11.171Z,29.22
2019-04-20T17:27:57.284Z,28.73
2019-04-20T17:31:38.098Z,28.87
2019-04-20T17:35:15.815Z,28.43
2019-04-20T17:38:34.670Z,28.26
2019-04-20T17:42:08.599Z,28.19
2019-04-20T17:45:28.550Z,28.23
2019-04-20T17:48:59.133Z,28.00
2019-04-20T17:52:28.403Z,27.87
2019-04-20T17:55:49.367Z,27.15
2019-04-20T17:59:12.489Z,27.63
2019-04-20T18:02:58.610Z,27.44
2019-04-20T18:06:24.166Z,27.53
2019-04-20T18:09:54.726Z,27.31
2019-04-20T18:12:57.078Z,26.64
2019-04-20T18:16:46.532Z,26.72
2019-04-20T18:19:54.594Z,26.61
2019-04-20T18:23:26.987Z,26.50
2019-04-20T18:27:05.574Z,26.46
2019-04-20T18:30:31.068Z,25.82
2019-04-20T18:33:44.367Z,25.96
2019-04-20T18:37:12.897Z,25.89
2019-04-20T18:40:41.771Z,25.89
2019-04-20T18:43:59.173Z,25.38
2019-04-20T18:47:40.578Z,25.27
2019-04-20T18:50:50.319Z,25.54
2019-04-20T18:54:18.835Z,25.59
2019-04-20T18:57:39.813Z,25.17
2019-04-20T19:01:03.217Z,25.28
2019-04-20T19:04:27.861Z,24.98
2019-04-20T19:07:59.277Z,25.09
2019-04-20T19:11:19.773Z,25.01
2019-04-20T19:15:30.476Z,24.90
2019-04-20T19:19:04.181Z,24.52
2019-04-20T19:22:17.509Z,24.77
2019-04-20T19:25:42.484Z,24.56
2019-04-20T19:29:15.647Z,24.45
2019-04-20T19:32:45.055Z,24.43
2019-04-20T19:36:12.035Z,24.01
2019-04-20T19:39:39.732Z,24.39
2019-04-20T19:43:01.228Z,24.17
2019-04-20T19:49:45.077Z,24.00
2019-04-20T19:53:26.542Z,23.99
2019-04-20T19:56:44.324Z,23.74
2019-04-20T19:59:55.785Z,23.82
2019-04-20T20:03:17.566Z,23.59
2019-04-20T20:06:48.893Z,23.97
2019-04-20T20:10:10.580Z,23.60
2019-04-20T20:13:41.992Z,23.56
2019-04-20T20:17:13.776Z,23.19
2019-04-20T20:20:42.936Z,23.16
2019-04-20T20:23:50.062Z,23.15
2019-04-20T20:27:24.204Z,23.02
2019-04-20T20:30:53.700Z,23.12
2019-04-20T20:34:12.887Z,22.79
2019-04-20T20:37:33.770Z,22.61
2019-04-20T20:41:05.726Z,22.54
2019-04-20T20:44:35.457Z,22.60
2019-04-20T20:48:06.202Z,22.43
2019-04-20T20:51:34.609Z,22.76
2019-04-20T20:54:48.361Z,22.56
2019-04-20T20:58:08.592Z,22.57
2019-04-20T21:01:33.092Z,22.33
2019-04-20T21:04:51.636Z,22.36
2019-04-20T21:08:15.642Z,22.36
2019-04-20T21:11:40.086Z,22.25
2019-04-20T21:15:08.224Z,21.77
2019-04-20T21:18:47.500Z,21.77
2019-04-20T21:22:03.026Z,22.06
2019-04-20T21:25:34.555Z,21.84
2019-04-20T21:28:55.511Z,21.52
2019-04-20T21:32:21.376Z,21.76
2019-04-20T21:35:48.330Z,21.51
2019-04-20T21:39:16.397Z,21.40
2019-04-20T21:42:42.472Z,21.42
2019-04-20T21:46:03.741Z,21.43
2019-04-20T21:49:38.757Z,21.37
2019-04-20T21:52:53.388Z,21.19
2019-04-20T21:56:15.667Z,21.14
2019-04-20T21:59:44.671Z,21.16
2019-04-20T22:03:09.853Z,20.96
2019-04-20T22:06:32.038Z,21.09
2019-04-20T22:09:56.791Z,21.02
2019-04-20T22:13:26.779Z,20.73
2019-04-20T22:16:50.170Z,20.85
2019-04-20T22:20:20.167Z,20.59
2019-04-20T22:23:54.411Z,20.60
2019-04-20T22:27:09.887Z,20.36
2019-04-20T22:30:28.234Z,20.38
2019-04-20T22:33:52.361Z,20.34
2019-04-20T22:37:21.996Z,20.19
2019-04-20T22:40:41.562Z,20.31
2019-04-20T22:44:12.175Z,20.36
2019-04-20T22:47:32.698Z,20.18
2019-04-20T22:51:16.474Z,20.13
2019-04-20T22:54:36.437Z,20.09
2019-04-20T22:57:57.430Z,19.99
2019-04-20T23:01:20.358Z,19.84
2019-04-20T23:04:37.106Z,19.69
2019-04-20T23:08:00.406Z,19.92
2019-04-20T23:11:28.376Z,19.42
2019-04-20T23:14:49.904Z,19.72
2019-04-20T23:18:13.961Z,19.67
2019-04-20T23:21:42.113Z,19.34
2019-04-20T23:25:03.151Z,19.30
2019-04-20T23:28:26.880Z,19.22
2019-04-20T23:31:55.652Z,19.16
2019-04-20T23:35:18.513Z,19.33
2019-04-20T23:38:44.200Z,19.22
2019-04-20T23:42:08.882Z,18.97
2019-04-20T23:45:52.353Z,18.96
2019-04-20T23:49:44.252Z,18.96
2019-04-20T23:53:18.201Z,18.89
2019-04-20T23:56:22.503Z,18.77
2019-04-20T23:59:46.975Z,18.69
